createdAt,value
2022-08-01T00:00:54.104Z,93.30
2022-08-01T00:03:56.080Z,92.90
2022-08-01T00:06:58.099Z,93.70
2022-08-01T00:10:00.102Z,93.00
2022-08-01T00:13:02.068Z,93.00
2022-08-01T00:16:04.199Z,92.70
2022-08-01T00:19:06.085Z,93.30
2022-08-01T00:22:08.309Z,99.60
2022-08-01T00:25:10.589Z,94.30
2022-08-01T00:28:12.672Z,94.00
2022-08-01T00:31:14.636Z,99.90
2022-08-01T00:34:16.639Z,94.20
2022-08-01T00:37:18.688Z,94.40
2022-08-01T00:40:20.564Z,94.10
2022-08-01T00:43:22.452Z,97.70
2022-08-01T00:46:24.380Z,92.40
2022-08-01T00:49:26.403Z,92.80
2022-08-01T00:52:28.257Z,92.30
2022-08-01T00:55:30.333Z,96.40
2022-08-01T00:58:33.325Z,92.10
2022-08-01T01:01:39.890Z,91.50
2022-08-01T01:04:42.156Z,92.20
2022-08-01T01:08:34.327Z,91.60
2022-08-01T01:11:56.005Z,92.80
2022-08-01T01:15:13.825Z,91.40
2022-08-01T01:18:29.208Z,92.60
2022-08-01T01:21:36.219Z,92.30
2022-08-01T01:25:05.698Z,91.00
2022-08-01T01:28:24.911Z,94.10
2022-08-01T01:31:26.816Z,94.30
2022-08-01T01:34:28.895Z,91.70
2022-08-01T01:37:30.736Z,92.20
2022-08-01T01:40:32.697Z,96.50
2022-08-01T01:43:34.883Z,94.20
2022-08-01T01:46:36.744Z,93.70
2022-08-01T01:49:38.898Z,98.50
2022-08-01T01:52:41.165Z,93.20
2022-08-01T01:55:48.996Z,98.60
2022-08-01T01:58:54.520Z,93.50
2022-08-01T02:02:05.922Z,94.50
2022-08-01T02:05:09.552Z,94.30
2022-08-01T02:08:16.441Z,94.60
2022-08-01T02:11:21.838Z,95.60
2022-08-01T02:14:23.855Z,95.90
2022-08-01T02:17:25.899Z,96.30
2022-08-01T02:20:30.079Z,96.70
2022-08-01T02:23:35.865Z,96.70
2022-08-01T02:26:38.192Z,97.70
2022-08-01T02:29:48.171Z,96.60
2022-08-01T02:32:58.677Z,98.00
2022-08-01T02:36:30.708Z,97.70
2022-08-01T02:39:25.903Z,98.50
2022-08-01T02:42:28.484Z,97.70
2022-08-01T02:45:30.432Z,97.90
2022-08-01T02:48:32.933Z,99.10
2022-08-01T02:51:37.196Z,99.30
2022-08-01T02:54:39.107Z,99.20
2022-08-01T02:57:52.614Z,99.90
2022-08-01T03:00:58.916Z,99.90
2022-08-01T03:04:00.830Z,99.90
2022-08-01T03:07:04.241Z,99.90
2022-08-01T03:10:06.574Z,99.90
2022-08-01T03:13:09.085Z,99.90
2022-08-01T03:16:12.025Z,99.90
2022-08-01T03:19:14.090Z,99.90
2022-08-01T03:22:16.121Z,99.90
2022-08-01T03:25:18.092Z,99.90
2022-08-01T03:28:20.040Z,99.90
2022-08-01T03:31:21.938Z,99.90
2022-08-01T03:34:23.883Z,99.90
2022-08-01T03:37:35.399Z,99.90
2022-08-01T03:40:42.175Z,99.90
2022-08-01T03:43:49.571Z,99.90
2022-08-01T03:46:55.324Z,99.90
2022-08-01T03:49:57.294Z,99.90
2022-08-01T03:52:59.341Z,99.90
2022-08-01T03:56:02.175Z,99.90
2022-08-01T03:59:04.649Z,99.90
2022-08-01T04:02:07.696Z,99.90
2022-08-01T04:05:10.673Z,99.90
2022-08-01T04:08:12.712Z,99.90
2022-08-01T04:11:14.655Z,99.90
2022-08-01T04:14:16.593Z,99.90
2022-08-01T04:17:18.580Z,99.90
2022-08-01T04:20:20.853Z,99.90
2022-08-01T04:23:24.237Z,99.90
2022-08-01T04:26:26.864Z,99.90
2022-08-01T04:29:29.929Z,99.90
2022-08-01T04:32:34.656Z,99.90
2022-08-01T04:36:01.418Z,99.90
2022-08-01T04:38:59.576Z,99.90
2022-08-01T04:42:04.905Z,99.90
2022-08-01T04:45:09.794Z,99.90
2022-08-01T04:48:11.869Z,99.90
2022-08-01T04:51:17.376Z,99.90
2022-08-01T04:54:19.648Z,99.90
2022-08-01T04:57:21.624Z,99.90
2022-08-01T05:00:23.583Z,99.90
2022-08-01T05:03:25.540Z,99.90
2022-08-01T05:06:27.464Z,99.90
2022-08-01T05:09:31.187Z,99.90
2022-08-01T05:12:33.399Z,99.90
2022-08-01T05:15:37.779Z,99.90
2022-08-01T05:18:39.757Z,99.90
2022-08-01T05:21:42.520Z,99.90
2022-08-01T05:24:44.609Z,99.90
2022-08-01T05:27:47.540Z,99.90
2022-08-01T05:30:51.076Z,99.90
2022-08-01T05:33:53.067Z,99.90
2022-08-01T05:36:57.954Z,99.90
2022-08-01T05:40:00.087Z,99.90
2022-08-01T05:43:02.044Z,99.90
2022-08-01T05:46:04.040Z,99.90
2022-08-01T05:49:06.102Z,99.90
2022-08-01T05:52:08.619Z,99.90
2022-08-01T05:55:11.016Z,99.90
2022-08-01T05:58:13.100Z,99.90
2022-08-01T06:01:15.061Z,99.90
2022-08-01T06:04:17.023Z,99.90
2022-08-01T06:07:19.025Z,99.90
2022-08-01T06:10:21.131Z,99.90
2022-08-01T06:13:23.092Z,99.90
2022-08-01T06:16:25.272Z,99.90
2022-08-01T06:19:27.538Z,99.90
2022-08-01T06:22:29.599Z,99.90
2022-08-01T06:25:32.934Z,99.90
2022-08-01T06:28:34.806Z,99.90
2022-08-01T06:31:36.776Z,99.90
2022-08-01T06:34:38.695Z,99.90
2022-08-01T06:37:40.683Z,99.90
2022-08-01T06:40:42.748Z,99.90
2022-08-01T06:43:44.713Z,99.90
2022-08-01T06:46:46.643Z,99.90
2022-08-01T06:49:48.663Z,99.90
2022-08-01T06:52:50.581Z,99.90
2022-08-01T06:55:52.529Z,99.20
2022-08-01T06:58:57.323Z,98.60
2022-08-01T07:01:59.289Z,97.10
2022-08-01T07:05:01.516Z,94.20
2022-08-01T07:08:06.162Z,95.80
2022-08-01T07:11:08.116Z,96.40
2022-08-01T07:14:09.953Z,93.10
2022-08-01T07:17:11.966Z,91.10
2022-08-01T07:20:16.161Z,93.90
2022-08-01T07:23:18.945Z,94.20
2022-08-01T07:26:24.524Z,95.20
2022-08-01T07:29:26.459Z,90.10
2022-08-01T07:32:30.235Z,77.70
2022-08-01T07:35:32.293Z,83.00
2022-08-01T07:38:34.232Z,81.50
2022-08-01T07:42:04.780Z,73.60
2022-08-01T07:44:58.060Z,72.30
2022-08-01T07:48:03.664Z,62.30
2022-08-01T07:51:11.339Z,64.30
2022-08-01T07:54:13.280Z,73.40
2022-08-01T07:57:15.324Z,68.30
2022-08-01T08:00:17.570Z,64.70
2022-08-01T08:03:19.511Z,67.30
2022-08-01T08:06:21.532Z,61.90
2022-08-01T08:09:24.019Z,65.70
2022-08-01T08:12:28.996Z,62.40
2022-08-01T08:15:31.923Z,58.60
2022-08-01T08:18:35.624Z,65.20
2022-08-01T08:21:39.800Z,63.80
2022-08-01T08:24:44.145Z,62.20
2022-08-01T08:27:48.168Z,61.60
2022-08-01T08:30:50.032Z,58.50
2022-08-01T08:33:52.078Z,55.40
2022-08-01T08:36:54.258Z,62.30
2022-08-01T08:39:56.379Z,61.60
2022-08-01T08:42:59.118Z,58.60
2022-08-01T08:46:01.381Z,58.90
2022-08-01T08:49:04.455Z,58.30
2022-08-01T08:52:09.272Z,56.00
2022-08-01T08:55:11.965Z,55.50
2022-08-01T08:58:14.232Z,56.10
2022-08-01T09:01:17.773Z,49.70
2022-08-01T09:04:25.819Z,51.20
2022-08-01T09:07:28.320Z,52.70
2022-08-01T09:10:30.309Z,49.50
2022-08-01T09:13:32.810Z,46.20
2022-08-01T09:16:34.963Z,42.30
2022-08-01T09:19:40.231Z,34.30
2022-08-01T09:22:47.688Z,32.00
2022-08-01T09:25:56.732Z,32.10
2022-08-01T09:29:05.798Z,27.00
2022-08-01T09:32:14.162Z,32.40
2022-08-01T09:35:30.782Z,31.10
2022-08-01T09:38:33.691Z,25.90
2022-08-01T09:41:37.830Z,32.60
2022-08-01T09:44:54.332Z,30.10
2022-08-01T09:47:57.320Z,25.80
2022-08-01T09:51:04.332Z,29.50
2022-08-01T09:54:11.662Z,28.50
2022-08-01T09:57:19.434Z,26.70
2022-08-01T10:00:43.735Z,22.50
2022-08-01T10:03:43.347Z,24.50
2022-08-01T10:06:50.750Z,25.40
2022-08-01T10:09:52.940Z,21.10
2022-08-01T10:12:58.078Z,15.80
2022-08-01T10:16:01.320Z,18.80
2022-08-01T10:19:04.877Z,21.70
2022-08-01T10:22:19.414Z,20.20
2022-08-01T10:25:42.927Z,18.50
2022-08-01T10:28:44.131Z,14.10
2022-08-01T10:31:50.289Z,14.40
2022-08-01T10:34:52.729Z,13.10
2022-08-01T10:37:59.049Z,13.40
2022-08-01T10:41:01.093Z,10.10
2022-08-01T10:44:09.076Z,10.50
2022-08-01T10:47:13.108Z,7.20
2022-08-01T10:50:35.139Z,6.20
2022-08-01T10:53:42.664Z,5.70
2022-08-01T10:56:50.820Z,5.30
2022-08-01T10:59:59.243Z,2.00
2022-08-01T11:03:04.590Z,3.90
2022-08-01T11:06:06.555Z,5.30
2022-08-01T11:09:36.485Z,7.00
2022-08-01T11:12:41.107Z,4.20
2022-08-01T11:15:50.057Z,7.30
2022-08-01T11:18:52.532Z,10.20
2022-08-01T11:21:57.268Z,8.60
2022-08-01T11:25:02.360Z,8.60
2022-08-01T11:28:28.918Z,10.10
2022-08-01T11:31:37.500Z,7.40
2022-08-01T11:34:59.308Z,11.20
2022-08-01T11:38:23.582Z,6.90
2022-08-01T11:41:38.800Z,7.30
2022-08-01T11:44:51.340Z,8.10
2022-08-01T11:47:53.334Z,9.70
2022-08-01T11:50:57.305Z,11.00
2022-08-01T11:54:00.016Z,11.70
2022-08-01T11:57:06.377Z,10.80
2022-08-01T12:00:15.528Z,12.60
2022-08-01T12:03:34.147Z,12.50
2022-08-01T12:06:36.566Z,12.60
2022-08-01T12:09:38.529Z,13.30
2022-08-01T12:12:54.417Z,12.80
2022-08-01T12:15:57.297Z,9.80
2022-08-01T12:18:59.357Z,10.10
2022-08-01T12:22:09.238Z,8.40
2022-08-01T12:25:13.075Z,3.70
2022-08-01T12:28:15.120Z,8.10
2022-08-01T12:31:17.307Z,9.50
2022-08-01T12:34:29.127Z,7.60
2022-08-01T12:37:31.238Z,7.70
2022-08-01T12:40:34.773Z,7.20
2022-08-01T12:43:37.021Z,9.20
2022-08-01T12:46:44.107Z,8.60
2022-08-01T12:49:46.489Z,7.20
2022-08-01T12:52:49.166Z,4.40
2022-08-01T12:55:59.575Z,4.40
2022-08-01T12:59:02.130Z,2.40
2022-08-01T13:02:09.737Z,3.10
2022-08-01T13:05:11.987Z,1.00
2022-08-01T13:08:15.176Z,2.10
2022-08-01T13:11:18.414Z,3.40
2022-08-01T13:14:30.045Z,3.90
2022-08-01T13:17:38.475Z,3.60
2022-08-01T13:20:40.439Z,5.90
2022-08-01T13:24:03.545Z,4.90
2022-08-01T13:27:05.976Z,3.10
2022-08-01T13:30:17.694Z,2.50
2022-08-01T13:33:19.691Z,2.00
2022-08-01T13:36:28.262Z,2.40
2022-08-01T13:39:43.342Z,1.70
2022-08-01T13:42:45.316Z,3.90
2022-08-01T13:45:47.503Z,5.30
2022-08-01T13:48:50.412Z,4.00
2022-08-01T13:51:53.018Z,3.90
2022-08-01T13:54:55.085Z,4.20
2022-08-01T13:57:57.179Z,4.00
2022-08-01T14:00:59.670Z,4.10
2022-08-01T14:04:01.907Z,2.50
2022-08-01T14:07:07.761Z,3.60
2022-08-01T14:10:18.285Z,3.80
2022-08-01T14:13:23.866Z,4.00
2022-08-01T14:16:25.951Z,3.20
2022-08-01T14:19:38.500Z,3.20
2022-08-01T14:22:41.730Z,2.30
2022-08-01T14:26:01.592Z,4.30
2022-08-01T14:29:06.010Z,3.60
2022-08-01T14:32:08.335Z,3.70
2022-08-01T14:35:10.515Z,3.60
2022-08-01T14:38:12.431Z,6.10
2022-08-01T14:41:23.781Z,6.90
2022-08-01T14:44:25.738Z,5.00
2022-08-01T14:47:30.109Z,7.10
2022-08-01T14:50:32.077Z,6.30
2022-08-01T14:53:36.013Z,5.20
2022-08-01T14:56:38.089Z,4.00
2022-08-01T14:59:40.216Z,5.80
2022-08-01T15:02:42.290Z,4.80
2022-08-01T15:05:44.257Z,5.00
2022-08-01T15:08:46.277Z,5.30
2022-08-01T15:11:48.707Z,5.30
2022-08-01T15:14:51.007Z,6.00
2022-08-01T15:17:53.597Z,6.50
2022-08-01T15:20:56.145Z,6.50
2022-08-01T15:23:58.030Z,6.20
2022-08-01T15:27:00.036Z,8.00
2022-08-01T15:30:02.259Z,5.60
2022-08-01T15:33:04.392Z,5.70
2022-08-01T15:36:06.467Z,6.20
2022-08-01T15:39:14.702Z,7.50
2022-08-01T15:42:20.015Z,8.20
2022-08-01T15:48:49.698Z,8.20
2022-08-01T15:51:51.756Z,9.00
2022-08-01T15:54:53.732Z,7.40
2022-08-01T15:57:55.958Z,6.60
2022-08-01T16:00:57.941Z,4.90
2022-08-01T16:03:59.905Z,5.30
2022-08-01T16:07:02.031Z,6.90
2022-08-01T16:10:04.860Z,6.70
2022-08-01T16:13:07.821Z,5.50
2022-08-01T16:16:10.675Z,8.40
2022-08-01T16:19:19.024Z,8.40
2022-08-01T16:22:21.621Z,7.30
2022-08-01T16:25:23.639Z,7.60
2022-08-01T16:28:25.642Z,7.00
2022-08-01T16:31:41.562Z,8.90
2022-08-01T16:34:49.816Z,8.40
2022-08-01T16:37:51.908Z,8.00
2022-08-01T16:40:55.594Z,8.80
2022-08-01T16:43:59.556Z,10.00
2022-08-01T16:47:05.339Z,9.90
2022-08-01T16:50:09.701Z,11.20
2022-08-01T16:53:11.763Z,10.60
2022-08-01T16:56:13.708Z,10.60
2022-08-01T16:59:15.650Z,10.80
2022-08-01T17:02:17.954Z,10.30
2022-08-01T17:05:22.931Z,11.90
2022-08-01T17:08:24.929Z,12.20
2022-08-01T17:11:26.987Z,11.60
2022-08-01T17:14:29.788Z,12.20
2022-08-01T17:17:31.829Z,12.10
2022-08-01T17:20:34.517Z,12.80
2022-08-01T17:23:36.473Z,12.70
2022-08-01T17:26:38.440Z,13.90
2022-08-01T17:29:43.303Z,14.20
2022-08-01T17:32:47.998Z,14.20
2022-08-01T17:35:50.173Z,13.80
2022-08-01T17:38:52.134Z,13.90
2022-08-01T17:41:54.120Z,14.10
2022-08-01T17:44:57.708Z,14.00
2022-08-01T17:48:02.251Z,14.80
2022-08-01T17:51:04.284Z,14.90
2022-08-01T17:54:06.388Z,15.60
2022-08-01T17:57:08.847Z,15.90
2022-08-01T18:00:11.698Z,16.50
2022-08-01T18:03:22.799Z,18.10
2022-08-01T18:06:32.157Z,17.80
2022-08-01T18:09:42.429Z,18.40
2022-08-01T18:12:47.732Z,18.40
2022-08-01T18:15:50.613Z,19.30
2022-08-01T18:18:52.686Z,20.20
2022-08-01T18:21:54.687Z,21.10
2022-08-01T18:24:56.702Z,21.60
2022-08-01T18:28:29.991Z,21.90
2022-08-01T18:31:20.872Z,25.60
2022-08-01T18:34:22.992Z,30.80
2022-08-01T18:37:25.911Z,29.60
2022-08-01T18:40:31.358Z,28.20
2022-08-01T18:43:33.348Z,30.70
2022-08-01T18:46:38.736Z,34.70
2022-08-01T18:49:40.829Z,35.60
2022-08-01T18:52:42.848Z,37.20
2022-08-01T18:55:44.785Z,36.30
2022-08-01T18:58:46.764Z,39.70
2022-08-01T19:01:48.842Z,37.40
2022-08-01T19:04:51.312Z,41.10
2022-08-01T19:08:06.415Z,44.30
2022-08-01T19:11:09.811Z,43.40
2022-08-01T19:14:11.713Z,40.30
2022-08-01T19:17:14.775Z,42.00
2022-08-01T19:20:16.737Z,43.10
2022-08-01T19:23:37.216Z,47.70
2022-08-01T19:26:40.335Z,50.30
2022-08-01T19:29:43.014Z,53.30
2022-08-01T19:32:45.779Z,53.30
2022-08-01T19:35:47.974Z,49.90
2022-08-01T19:38:50.063Z,53.60
2022-08-01T19:41:52.329Z,53.20
2022-08-01T19:44:54.369Z,54.50
2022-08-01T19:47:57.761Z,54.80
2022-08-01T19:51:02.224Z,58.20
2022-08-01T19:54:07.541Z,58.10
2022-08-01T19:57:10.726Z,57.40
2022-08-01T20:00:24.022Z,58.40
2022-08-01T20:03:32.033Z,59.60
2022-08-01T20:06:35.384Z,62.90
2022-08-01T20:09:38.693Z,60.40
2022-08-01T20:12:41.463Z,63.70
2022-08-01T20:15:44.242Z,60.50
2022-08-01T20:18:46.229Z,63.70
2022-08-01T20:22:02.107Z,65.80
2022-08-01T20:25:06.432Z,71.60
2022-08-01T20:28:09.840Z,65.10
2022-08-01T20:31:11.807Z,67.40
2022-08-01T20:34:16.745Z,63.10
2022-08-01T20:38:03.464Z,66.30
2022-08-01T20:40:43.950Z,66.90
2022-08-01T20:43:46.088Z,62.40
2022-08-01T20:46:48.871Z,63.40
2022-08-01T20:49:51.732Z,62.20
2022-08-01T20:52:53.636Z,65.40
2022-08-01T20:56:03.792Z,62.40
2022-08-01T20:59:39.473Z,67.50
2022-08-01T21:03:08.302Z,68.70
2022-08-01T21:06:14.116Z,70.00
2022-08-01T21:09:19.104Z,68.60
2022-08-01T21:12:29.037Z,68.00
2022-08-01T21:15:31.995Z,69.40
2022-08-01T21:18:39.517Z,66.00
2022-08-01T21:21:45.033Z,66.90
2022-08-01T21:24:58.976Z,66.90
2022-08-01T21:28:01.679Z,64.60
2022-08-01T21:31:03.842Z,66.90
2022-08-01T21:34:12.227Z,65.20
2022-08-01T21:37:17.420Z,64.20
2022-08-01T21:40:23.316Z,64.50
2022-08-01T21:43:25.264Z,64.60
2022-08-01T21:46:29.220Z,63.20
2022-08-01T21:49:31.451Z,63.50
2022-08-01T21:52:43.531Z,62.70
2022-08-01T21:56:28.300Z,66.90
2022-08-01T21:59:40.951Z,65.10
2022-08-01T22:03:07.803Z,67.60
2022-08-01T22:06:09.747Z,66.90
2022-08-01T22:09:11.832Z,63.60
2022-08-01T22:12:18.322Z,62.30
2022-08-01T22:15:25.248Z,60.30
2022-08-01T22:18:46.095Z,60.80
2022-08-01T22:21:48.129Z,60.60
2022-08-01T22:24:51.033Z,58.80
2022-08-01T22:28:03.245Z,60.60
2022-08-01T22:31:10.922Z,61.40
2022-08-01T22:34:13.060Z,61.10
2022-08-01T22:37:15.097Z,60.70
2022-08-01T22:40:16.934Z,60.50
2022-08-01T22:43:25.528Z,58.40
2022-08-01T22:46:40.606Z,60.40
2022-08-01T22:49:44.667Z,59.00
2022-08-01T22:53:10.724Z,59.00
2022-08-01T22:56:12.763Z,62.90
2022-08-01T22:59:16.575Z,62.00
2022-08-01T23:02:19.823Z,64.40
2022-08-01T23:05:23.238Z,63.20
2022-08-01T23:08:25.403Z,62.30
2022-08-01T23:11:27.350Z,63.30
2022-08-01T23:14:29.276Z,61.60
2022-08-01T23:17:34.706Z,62.50
2022-08-01T23:20:36.649Z,63.60
2022-08-01T23:23:38.654Z,62.80
2022-08-01T23:26:40.676Z,65.70
2022-08-01T23:29:42.683Z,65.80
2022-08-01T23:32:44.615Z,64.00
2022-08-01T23:35:46.605Z,66.60
2022-08-01T23:38:48.566Z,67.30
2022-08-01T23:41:57.956Z,68.70
2022-08-01T23:45:09.859Z,67.40
2022-08-01T23:48:11.767Z,66.20
2022-08-01T23:51:23.887Z,66.30
2022-08-01T23:54:26.848Z,68.30
2022-08-01T23:57:28.742Z,67.10
